Terminal Aerodrome Forecast
Issued by NWS

Home | Current Version | Previous Version | Text Only | Print | Product List | Glossary On
Versions: 1 2 3 4 5 6 7 8 9 10 11 12 13 14 15 16
000
FTUS46 KSTO 241100
TAFMHR
TAF
KMHR 241120Z 2412/2512 00000KT 3SM BR FEW250
      TEMPO 2412/2414 1SM BR SCT002
     FM241400 00000KT 1SM BR BKN002
      TEMPO 2414/2418 1/2SM FG VV001
     FM241900 33005KT P6SM FEW250
     FM250600 VRB03KT 4SM BR FEW250
      AMD NOT SKED=

USA.gov is the U.S. government's official web portal to all federal, state and local government web resources and services.